Tiempo atmosférico en la estación meteorológica de Castell Del Ferro, Granada (235 m.)



Fecha
DESCASC
Temp. máxima en grados centígrados (hora)
DESCASC
Temp. mínima en grados centígrados (hora)
DESCASC
Temp. media en grados centígrados
DESCASC
Racha de viento máxima en m/sg (hora)
DESCASC
Velocidad máxima media en intervalos de 10 minutos(hora)
DESCASC
Precipitaciones diarias en mm
DESCASC
Precipitaciones de 00:00 a 06:00 en mm
DESCASC
Precipitaciones de 06:00 a 12:00 en mm
DESCASC
Precipitaciones de 12:00 a 18:00 en mm
DESCASC
Precipitaciones de 18:00 a 24:00 en mm
DESCASC

Gráficas

Temp. máximas Temp. mínimas Temp. medias Precipitaciones Rachas de viento máximas Velocidades máximas media en intervalos de 10 minutos

Datos horarios

Fecha y hora oficial Temperatura (ºC) Velocidad del viento (km/h) Dirección del viento Racha (km/h) Dirección de racha Precipitación (mm) Presión (hPa) Tendencia (hPa) Humedad (%)
2019-04-23 23:00:00 -- -- -- -- -- -- -- -- --
2019-04-23 22:00:00 -- 19 Oeste 44 Oeste 0 -- -- 73
2019-04-23 21:00:00 -- 27 Oeste 50 Oeste 0 -- -- 69
2019-04-23 20:00:00 -- 21 Oeste 48 Oeste 0 -- -- 75
2019-04-23 19:00:00 -- 18 Oeste 39 Oeste 0 -- -- 71
2019-04-23 18:00:00 -- 21 Oeste 45 Sudoeste 0 -- -- 71
2019-04-23 17:00:00 -- 20 Oeste 36 Oeste 0 -- -- 65
2019-04-23 16:00:00 -- 14 Oeste 33 Oeste 0 -- -- 67
2019-04-23 15:00:00 -- 7 Oeste 33 Noroeste 0.2 -- -- 76
2019-04-23 14:00:00 -- 17 Noroeste 29 Noroeste 0.8 -- -- 87
2019-04-23 13:00:00 -- 10 Noroeste 32 Oeste 1.8 -- -- 91
2019-04-23 12:00:00 -- 11 Noroeste 34 Noroeste 3.6 -- -- 90
2019-04-23 11:00:00 -- 22 Noroeste 49 Noroeste 1.6 -- -- 91
2019-04-23 10:00:00 -- 12 Noroeste 31 Noroeste 0 -- -- 83
2019-04-23 09:00:00 -- 15 Noroeste 29 Oeste 0 -- -- 79
2019-04-23 08:00:00 -- 17 Oeste 31 Oeste 0 -- -- 85
2019-04-23 07:00:00 -- 17 Oeste 33 Oeste 0 -- -- 81
2019-04-23 06:00:00 -- 19 Oeste 40 Oeste 0 -- -- 82
2019-04-23 05:00:00 -- 23 Oeste 41 Oeste 0 -- -- 84
2019-04-23 04:00:00 -- 23 Oeste 40 Oeste 0 -- -- 84
2019-04-23 03:00:00 -- 18 Oeste 38 Oeste 0 -- -- 83
2019-04-23 02:00:00 -- 23 Oeste 42 Oeste 0 -- -- 80
2019-04-23 01:00:00 -- 30 Oeste 45 Oeste 0 -- -- 86
2019-04-23 00:00:00 -- 30 Oeste 52 Oeste 0 -- -- 86
2019-04-22 23:00:00 -- 30 Oeste 44 Oeste 0 -- -- 86
2019-04-22 22:00:00 -- 28 Oeste 37 Sudoeste 0 -- -- 84
2019-04-22 21:00:00 -- 22 Oeste 40 Oeste 0 -- -- 83
2019-04-22 20:00:00 -- 24 Oeste 43 Noroeste 0 -- -- 80
2019-04-22 19:00:00 -- 30 Oeste 48 Oeste 0 -- -- 74
2019-04-22 18:00:00 -- 27 Oeste 46 Oeste 0 -- -- 67
2019-04-22 17:00:00 -- 28 Oeste 48 Oeste 0 -- -- 60
2019-04-22 16:00:00 -- 24 Oeste 49 Oeste 0 -- -- 57
2019-04-22 15:00:00 -- 12 Norte 32 Oeste 0 -- -- 53
2019-04-22 14:00:00 -- 8 Sudeste 21 Este 0 -- -- 73
2019-04-22 13:00:00 -- 14 Sudeste 22 Sudeste 0 -- -- 71
2019-04-22 12:00:00 -- 6 Sudeste 11 Sudeste 0 -- -- 73
2019-04-22 11:00:00 -- 6 Sudeste 18 Sudeste 0 -- -- 85
2019-04-22 10:00:00 -- 11 Sudeste 16 Sudeste 0 -- -- 73
2019-04-22 09:00:00 -- 0 Calma 7 Oeste 0 -- -- 82
2019-04-22 08:00:00 -- 2 Sudoeste 10 Oeste 0 -- -- 85
2019-04-22 07:00:00 -- 6 Oeste 9 Oeste 0 -- -- 82
2019-04-22 06:00:00 -- 2 Sudoeste 10 Oeste 0 -- -- 87
2019-04-22 05:00:00 -- 5 Sudoeste 10 Oeste 0 -- -- 90
2019-04-22 04:00:00 -- 3 Sudeste 16 Sudoeste 0 -- -- 88
2019-04-22 03:00:00 -- 11 Sudoeste 17 Sudoeste 0 -- -- 87
2019-04-22 02:00:00 -- 3 Norte 21 Oeste 0 -- -- 87
2019-04-22 01:00:00 -- 2 Sudeste 25 Oeste 0 -- -- 83
2019-04-22 00:00:00 -- 15 Oeste 27 Oeste 0 -- -- 80
2019-04-21 23:00:00 -- 13 Oeste 22 Oeste 0 -- -- 81
2019-04-21 22:00:00 -- 15 Oeste 34 Oeste 0 -- -- 82
2019-04-21 21:00:00 -- 22 Oeste 37 Oeste 0 -- -- 86
2019-04-21 20:00:00 -- 19 Oeste 30 Oeste 0 -- -- 83
2019-04-21 19:00:00 -- 12 Oeste 24 Oeste 0 -- -- 86
2019-04-21 18:00:00 -- 4 Norte 21 Norte 0 -- -- 83
2019-04-21 17:00:00 -- 5 Norte 24 Oeste 0 -- -- 78
2019-04-21 16:00:00 -- 6 Noroeste 25 Oeste 0 -- -- 78
2019-04-21 15:00:00 -- 13 Oeste 25 Oeste 0 -- -- 81
2019-04-21 14:00:00 -- 7 Noroeste 24 Oeste 0 -- -- 80
2019-04-21 13:00:00 -- 8 Oeste 21 Oeste 0 -- -- 82
2019-04-21 12:00:00 -- 3 Noroeste 8 Noroeste 0 -- -- 91
2019-04-21 11:00:00 -- 2 Sudeste 5 Noroeste 0 -- -- 94
2019-04-21 10:00:00 -- 0 Calma 7 Sudeste 0.2 -- -- 96
2019-04-21 09:00:00 -- 4 Sudeste 14 Sudeste 0 -- -- 97
2019-04-21 08:00:00 -- 7 Sur 23 Oeste 0.6 -- -- 91
2019-04-21 07:00:00 -- 0 Calma 8 Sudoeste 1.6 -- -- 95
2019-04-21 06:00:00 -- 0 Calma 6 Oeste 1.4 -- -- 95
2019-04-21 05:00:00 -- 0 Calma 5 Sudeste 1.2 -- -- 94
2019-04-21 04:00:00 -- 4 Sur 12 Sudeste 1 -- -- 91
2019-04-21 03:00:00 -- 5 Sur 16 Oeste 0 -- -- 79
2019-04-21 02:00:00 -- 2 Sudoeste 7 Sudoeste 0 -- -- 83
2019-04-21 01:00:00 -- 0 Calma 2 Sudoeste 0 -- -- 83
2019-04-21 00:00:00 -- 0 Calma 12 Oeste 0 -- -- 83
2019-04-20 23:00:00 -- 3 Noroeste 6 Sudeste 0 -- -- 83
2019-04-20 22:00:00 -- 3 Este 6 Sudeste 0 -- -- 81
2019-04-20 21:00:00 -- 4 Oeste 6 Sudoeste 0 -- -- 76
2019-04-20 20:00:00 -- 5 Sudeste 12 Sudeste 0 -- -- 78
2019-04-20 19:00:00 -- 6 Este 13 Sudeste 0 -- -- 75
2019-04-20 18:00:00 -- 3 Este 9 Nordeste 0 -- -- 79
2019-04-20 17:00:00 -- 3 Nordeste 22 Sudeste 0 -- -- 81
2019-04-20 16:00:00 -- 12 Sur 21 Sudeste 0 -- -- 74
2019-04-20 15:00:00 -- 4 Este 14 Este 0 -- -- 69
2019-04-20 14:00:00 -- 8 Sudeste 17 Sudeste 0 -- -- 78
2019-04-20 13:00:00 -- 10 Sudeste 14 Este 0 -- -- 77
2019-04-20 12:00:00 -- 2 Nordeste 6 Noroeste 0.4 -- -- 82
2019-04-20 11:00:00 -- 2 Nordeste 6 Este 0 -- -- 81
2019-04-20 10:00:00 -- 0 Calma 5 Oeste 0 -- -- 84
2019-04-20 09:00:00 -- 3 Oeste 6 Oeste 0 -- -- 84
2019-04-20 08:00:00 -- 2 Oeste 7 Oeste 0 -- -- 84
2019-04-20 07:00:00 -- 5 Oeste 9 Oeste 0 -- -- 84
2019-04-20 06:00:00 -- 3 Norte 14 Oeste 0 -- -- 82
2019-04-20 05:00:00 -- 5 Sudoeste 9 Oeste 0 -- -- 83
2019-04-20 04:00:00 -- 4 Sudoeste 10 Oeste 0 -- -- 83
2019-04-20 03:00:00 -- 0 Calma 5 Sudoeste 0 -- -- 83
2019-04-20 02:00:00 -- 4 Sudoeste 10 Sudoeste 0 -- -- 82
2019-04-20 01:00:00 -- 5 Oeste 10 Oeste 0 -- -- 81
2019-04-20 00:00:00 -- 6 Oeste 9 Oeste 0 -- -- 81
2019-04-19 23:00:00 -- 0 Calma 4 Sudoeste 0 -- -- 82
2019-04-19 22:00:00 -- 4 Sudoeste 7 Oeste 0 -- -- 80
2019-04-19 21:00:00 -- 0 Calma 4 Este 0 -- -- 82
2019-04-19 20:00:00 -- 2 Este 10 Sudeste 0 -- -- 77
2019-04-19 19:00:00 -- 8 Sudeste 12 Este 0 -- -- 72
2019-04-19 18:00:00 -- 9 Este 17 Sudeste 0 -- -- 64
2019-04-19 17:00:00 -- 12 Sudeste 19 Este 0 -- -- 62
2019-04-19 16:00:00 -- 10 Este 20 Este 0 -- -- 57
2019-04-19 15:00:00 -- 10 Sudeste 22 Sudeste 0 -- -- 60
2019-04-19 14:00:00 -- 8 Sudeste 19 Este 0 -- -- 70
2019-04-19 13:00:00 -- 13 Este 22 Este 0 -- -- 70
2019-04-19 12:00:00 -- 10 Sudeste 18 Sudeste 0 -- -- 72
2019-04-19 11:00:00 -- 8 Este 14 Este 0 -- -- 66
2019-04-19 10:00:00 -- 7 Nordeste 11 Nordeste 0 -- -- 69
2019-04-19 09:00:00 -- 2 Este 5 Este 0 -- -- 70
2019-04-19 08:00:00 -- 3 Sudoeste 8 Sur 0 -- -- 81
2019-04-19 07:00:00 -- 4 Oeste 8 Oeste 0 -- -- 70
2019-04-19 06:00:00 -- 2 Oeste 9 Oeste 0 -- -- 70
2019-04-19 05:00:00 -- 8 Oeste 13 Sudoeste 0 -- -- 66
2019-04-19 04:00:00 -- 2 Sudeste 13 Sudoeste 0 -- -- 69
2019-04-19 03:00:00 -- 4 Oeste 14 Oeste 0 -- -- 69
2019-04-19 02:00:00 -- 2 Oeste 8 Sur 0 -- -- 80
2019-04-19 01:00:00 -- 4 Oeste 11 Oeste 0 -- -- 67
2019-04-19 00:00:00 -- 5 Sur 36 Oeste 0 -- -- 85
2019-04-18 23:00:00 -- 22 Oeste 37 Oeste 0 -- -- 61
2019-04-18 22:00:00 -- 23 Oeste 36 Oeste 0 -- -- 71
2019-04-18 21:00:00 -- 18 Oeste 31 Oeste 0 -- -- 86
2019-04-18 20:00:00 -- 13 Oeste 25 Noroeste 0 -- -- 80
2019-04-18 19:00:00 -- 14 Oeste 30 Oeste 0 -- -- 73
2019-04-18 18:00:00 -- 17 Noroeste 29 Oeste 0 -- -- 72
2019-04-18 17:00:00 -- 13 Oeste 31 Oeste 0 -- -- 74
2019-04-18 16:00:00 30.1 9 Oeste 22 Sudoeste 0 -- -- 79
2019-04-18 15:00:00 -- 10 Oeste 28 Oeste 0 -- -- 77
2019-04-18 14:00:00 -- 17 Oeste 28 Oeste 0 -- -- 83
2019-04-18 13:00:00 34.9 7 Este 14 Nordeste 0 -- -- 86
2019-04-18 12:00:00 23.3 3 Nordeste 14 Oeste 0.4 -- -- 92
2019-04-18 11:00:00 -- 9 Oeste 48 Noroeste 4 -- -- 90
2019-04-18 10:00:00 -- 32 Noroeste 57 Noroeste 2.6 -- -- 87
2019-04-18 09:00:00 -- 24 Oeste 44 Oeste 1.2 -- -- 87
2019-04-18 08:00:00 -- 14 Oeste 48 Oeste 1.6 -- -- 94
2019-04-18 07:00:00 -- 22 Oeste 35 Oeste 1 -- -- 92
2019-04-18 06:00:00 -- 11 Oeste 23 Oeste 0.8 -- -- 93
2019-04-18 05:00:00 -- 5 Sudeste 32 Sudoeste 0.4 -- -- 92
2019-04-18 04:00:00 -- 5 Sudoeste 13 Sudoeste 0.6 -- -- 89
2019-04-18 03:00:00 -- 4 Oeste 14 Sudeste 0.6 -- -- 86
2019-04-18 02:00:00 -- 10 Sudeste 26 Noroeste 0 -- -- 84
2019-04-18 01:00:00 -- 9 Sudoeste 33 Oeste 0 -- -- 82
2019-04-18 00:00:00 -- 15 Oeste 41 Noroeste 0 -- -- 78
2019-04-17 23:00:00 -- 9 Oeste 39 Oeste 0 -- -- 85
2019-04-17 22:00:00 -- 24 Oeste 45 Sudoeste 0 -- -- 85
2019-04-17 21:00:00 -- 13 Oeste 43 Oeste 0 -- -- 79
2019-04-17 20:00:00 -- 21 Oeste 45 Oeste 0 -- -- 84
2019-04-17 19:00:00 -- 20 Oeste 38 Sudoeste 0 -- -- 82
2019-04-17 18:00:00 -- 13 Sudeste 18 Sudeste 0 -- -- 80
2019-04-17 17:00:00 -- 12 Sudeste 24 Sudeste 0 -- -- 80
2019-04-17 16:00:00 -- 16 Sudeste 29 Este 0 -- -- 73
2019-04-17 15:00:00 -- 16 Este 33 Este 0 -- -- 71
2019-04-17 14:00:00 -- 18 Este 32 Este 0 -- -- 73
2019-04-17 13:00:00 -- 14 Este 24 Este 0 -- -- 70
2019-04-17 12:00:00 -- 11 Este 21 Sudeste 0 -- -- 70
2019-04-17 11:00:00 -- 6 Sudeste 15 Sudeste 0 -- -- 63
2019-04-17 10:00:00 -- 6 Sudeste 11 Sudeste 0 -- -- 56
2019-04-17 09:00:00 -- 3 Sudeste 9 Sudoeste 0 -- -- 60
2019-04-17 08:00:00 -- 2 Noroeste 5 Este 0 -- -- 66
2019-04-17 07:00:00 -- 3 Oeste 5 Oeste 0 -- -- 67
2019-04-17 06:00:00 -- 0 Calma 10 Sur 0 -- -- 58
2019-04-17 05:00:00 -- 3 Sudoeste 8 Sudoeste 0 -- -- 54
2019-04-17 04:00:00 -- 3 Oeste 5 Oeste 0 -- -- 70
2019-04-17 03:00:00 -- 0 Calma 8 Oeste 0 -- -- 81
2019-04-17 02:00:00 -- 4 Sudoeste 11 Sudeste 0 -- -- 90
2019-04-17 01:00:00 -- 3 Sudeste 15 Sudeste 0 -- -- 90
2019-04-17 00:00:00 -- 3 Sudeste 7 Este 0 -- -- 81
2019-04-16 23:00:00 -- 5 Sur 12 Sudeste 0 -- -- 83
2019-04-16 22:00:00 -- 5 Sudeste 13 Este 0 -- -- 77
2019-04-16 21:00:00 -- 6 Sudeste 14 Sudeste 0 -- -- 77
2019-04-16 20:00:00 -- 5 Sur 16 Sudeste 0 -- -- 69
2019-04-16 19:00:00 -- 5 Este 14 Este 0 -- -- 55
2019-04-16 18:00:00 -- 4 Sudeste 13 Sudeste 0 -- -- 49
2019-04-16 17:00:00 -- 6 Este 13 Nordeste 0 -- -- 57
2019-04-16 16:00:00 -- 8 Este 18 Sudeste 0 -- -- 70
2019-04-16 15:00:00 -- 14 Sudeste 27 Sudeste 0 -- -- 67
2019-04-16 14:00:00 -- 8 Este 20 Sudeste 0 -- -- 62
2019-04-16 13:00:00 -- 11 Este 23 Este 0 -- -- 69
2019-04-16 12:00:00 -- 6 Sudeste 24 Este 0 -- -- 68
2019-04-16 11:00:00 -- 4 Este 19 Sudeste 0 -- -- 68
2019-04-16 10:00:00 -- 13 Sudeste 19 Sudeste 0 -- -- 75
2019-04-16 09:00:00 -- 3 Noroeste 10 Sur 0 -- -- 72
2019-04-16 08:00:00 -- 10 Sudeste 14 Sudeste 0 -- -- 80
2019-04-16 07:00:00 -- 6 Sur 12 Noroeste 0 -- -- 78
2019-04-16 06:00:00 -- 15 Noroeste 29 Oeste 0 -- -- 60
2019-04-16 05:00:00 -- 16 Noroeste 39 Oeste 0 -- -- 64
2019-04-16 04:00:00 -- 24 Oeste 50 Oeste 0 -- -- 70
2019-04-16 03:00:00 -- 33 Oeste 56 Oeste 0 -- -- 80
2019-04-16 02:00:00 -- 31 Oeste 53 Oeste 0 -- -- 58
2019-04-16 01:00:00 -- 27 Oeste 41 Oeste 0 -- -- 54
2019-04-16 00:00:00 -- 26 Oeste 46 Noroeste 0 -- -- 40
2019-04-15 23:00:00 -- 27 Noroeste 48 Oeste 0 -- -- 36
2019-04-15 22:00:00 -- 21 Oeste 50 Sudoeste 0 -- -- 60
2019-04-15 21:00:00 -- 35 Oeste 51 Oeste 0 -- -- 54
2019-04-15 20:00:00 -- 28 Oeste 45 Oeste 0 -- -- 40
2019-04-15 19:00:00 -- 26 Oeste 42 Oeste 0 -- -- 33
2019-04-15 18:00:00 -- 24 Oeste 37 Oeste 0 -- -- 37
2019-04-15 17:00:00 -- 9 Noroeste 24 Noroeste 0 -- -- 34
2019-04-15 16:00:00 -- 7 Este 13 Sudeste 0 -- -- 54
2019-04-15 15:00:00 -- 5 Nordeste 9 Este 0 -- -- 57
2019-04-15 14:00:00 -- 6 Este 12 Sudeste 0 -- -- 47
2019-04-15 13:00:00 -- 5 Este 8 Este 0 -- -- 47
2019-04-15 12:00:00 -- 3 Este 11 Este 0 -- -- 44
2019-04-15 11:00:00 -- 4 Este 9 Sudeste 0 -- -- 45
2019-04-15 10:00:00 -- 4 Este 6 Sudeste 0 -- -- 55
2019-04-15 09:00:00 -- 4 Sudeste 9 Sudeste 0 -- -- 64
2019-04-15 08:00:00 -- 0 Calma 8 Noroeste 0 -- -- 62
2019-04-15 07:00:00 -- 3 Sur 7 Oeste 0 -- -- 58
2019-04-15 06:00:00 -- 0 Calma -- -- 0 -- -- 60
2019-04-15 05:00:00 -- 0 Calma 4 Sudoeste 0 -- -- 60
2019-04-15 04:00:00 -- 0 Calma 2 Oeste 0 -- -- 60
2019-04-15 03:00:00 -- 0 Calma 2 Sudoeste 0 -- -- 61
2019-04-15 02:00:00 -- 2 Oeste 6 Noroeste 0 -- -- 60
2019-04-15 01:00:00 -- 0 Calma 4 Sur 0 -- -- 61
2019-04-15 00:00:00 -- 3 Sur 8 Oeste 0 -- -- 58
2019-04-14 23:00:00 -- 3 Noroeste 7 Oeste 0 -- -- 56
2019-04-14 22:00:00 -- 3 Sudoeste 9 Oeste 0 -- -- 55
2019-04-14 21:00:00 -- 2 Oeste 9 Oeste 0 -- -- 57
2019-04-14 20:00:00 -- 2 Sur 8 Sudoeste 0 -- -- 58
2019-04-14 19:00:00 -- 0 Calma 8 Este 0 -- -- 65
2019-04-14 18:00:00 -- 3 Este 9 Este 0 -- -- 67
2019-04-14 17:00:00 -- 4 Nordeste 10 Este 0 -- -- 69
2019-04-14 16:00:00 -- 4 Este 11 Nordeste 0 -- -- 66
2019-04-14 15:00:00 -- 6 Nordeste 11 Este 0 -- -- 69
2019-04-14 14:00:00 -- 7 Este 15 Sudeste 0 -- -- 67
2019-04-14 13:00:00 -- 6 Este 14 Este 0 -- -- 67
2019-04-14 12:00:00 -- 7 Este 12 Sudeste 0 -- -- 60
2019-04-14 11:00:00 -- 8 Sudeste 11 Sudeste 0 -- -- 50
2019-04-14 10:00:00 -- 4 Este 8 Este 0 -- -- 53
2019-04-14 09:00:00 -- 0 Calma 4 Noroeste 0 -- -- 54
2019-04-14 08:00:00 -- 3 Oeste 9 Sur 0 -- -- 71
2019-04-14 07:00:00 -- 3 Sudeste 10 Sur 0 -- -- 73
2019-04-14 06:00:00 -- 2 Sur 13 Oeste 0 -- -- 55
2019-04-14 05:00:00 -- 3 Noroeste 12 Oeste 0 -- -- 48
2019-04-14 04:00:00 -- 3 Oeste 14 Oeste 0 -- -- 51
2019-04-14 03:00:00 -- 13 Oeste 15 Oeste 0 -- -- 46
2019-04-14 02:00:00 -- 3 Oeste 10 Sur 0 -- -- 53
2019-04-14 01:00:00 -- 2 Sudoeste 7 Oeste 0 -- -- 50
2019-04-14 00:00:00 -- 3 Sur 11 Sudeste 0 -- -- 49
2019-04-13 23:00:00 -- 7 Sur 24 Noroeste 0 -- -- 52
2019-04-13 22:00:00 -- 17 Oeste 33 Oeste 0 -- -- 42
2019-04-13 21:00:00 -- 8 Sudeste 18 Este 0 -- -- 42
2019-04-13 20:00:00 -- 9 Nordeste 35 Oeste 0 -- -- 39
2019-04-13 19:00:00 -- 13 Oeste 30 Oeste 0 -- -- 37
2019-04-13 18:00:00 -- 10 Noroeste 26 Oeste 0 -- -- 34
2019-04-13 17:00:00 -- 13 Oeste 27 Oeste 0 -- -- 34
2019-04-13 16:00:00 -- 7 Noroeste 27 Oeste 0 -- -- 42
2019-04-13 15:00:00 -- 8 Norte 21 Sudeste 0 -- -- 43
2019-04-13 14:00:00 -- 7 Sudoeste 24 Sudoeste 0 -- -- 39
2019-04-13 13:00:00 -- 15 Sudeste 23 Sudeste 0 -- -- 37
2019-04-13 12:00:00 -- 9 Este 15 Este 0 -- -- 56
2019-04-13 11:00:00 -- 7 Este 11 Sudeste 0 -- -- 44
2019-04-13 10:00:00 -- 3 Este 6 Este 0 -- -- 52
2019-04-13 09:00:00 -- 0 Calma 8 Oeste 0 -- -- 48
2019-04-13 08:00:00 -- 6 Oeste 13 Oeste 0 -- -- 38
2019-04-13 07:00:00 -- 3 Oeste 6 Noroeste 0 -- -- 41
2019-04-13 06:00:00 -- 2 Sudoeste 6 Oeste 0 -- -- 46
2019-04-13 05:00:00 -- 3 Noroeste 7 Noroeste 0 -- -- 43
2019-04-13 04:00:00 -- 4 Oeste 11 Oeste 0 -- -- 41
2019-04-13 03:00:00 -- 0 Calma 6 Noroeste 0 -- -- 44
2019-04-13 02:00:00 -- 0 Calma 7 Oeste 0 -- -- 49
2019-04-13 01:00:00 -- 3 Oeste 10 Oeste 0 -- -- 45
2019-04-13 00:00:00 -- 3 Oeste 10 Oeste 0 -- -- 46
2019-04-12 23:00:00 -- 5 Oeste 12 Oeste 0 -- -- 45
2019-04-12 22:00:00 -- 3 Sur 6 Sudoeste 0 -- -- 51
2019-04-12 21:00:00 -- 0 Calma 12 Noroeste 0 -- -- 49
2019-04-12 20:00:00 -- 5 Oeste 20 Oeste 0 -- -- 44
2019-04-12 19:00:00 -- 12 Oeste 28 Oeste 0 -- -- 41
2019-04-12 18:00:00 -- 12 Oeste 28 Oeste 0 -- -- 33
2019-04-12 17:00:00 -- 11 Sudoeste 34 Sur 0 -- -- 31
2019-04-12 16:00:00 -- 8 Sur 28 Sur 0 -- -- 35
2019-04-12 15:00:00 -- 13 Sudeste 24 Sudeste 0 -- -- 38
2019-04-12 14:00:00 -- 10 Sur 25 Sudeste 0 -- -- 43
2019-04-12 13:00:00 -- 16 Sudeste 26 Sudeste 0 -- -- 44
2019-04-12 12:00:00 -- 11 Sur 22 Sudeste 0 -- -- 45
2019-04-12 11:00:00 -- 9 Este 16 Este 0 -- -- 47
2019-04-12 10:00:00 -- 3 Nordeste 6 Nordeste 0 -- -- 50
2019-04-12 09:00:00 -- 0 Calma 9 Oeste 0 -- -- 46
2019-04-12 08:00:00 -- 4 Oeste 9 Sudoeste 0 -- -- 56
2019-04-12 07:00:00 -- 4 Sur 8 Sudoeste 0 -- -- 68
2019-04-12 06:00:00 -- 2 Sur 9 Sur 0 -- -- 75
2019-04-12 05:00:00 -- 6 Sur 11 Sudoeste 0 -- -- 73
2019-04-12 04:00:00 -- 6 Sur 11 Sur 0 -- -- 76
2019-04-12 03:00:00 -- 0 Calma 10 Sur 0 -- -- 64
2019-04-12 02:00:00 -- 5 Sur 10 Sudeste 0 -- -- 78
2019-04-12 01:00:00 -- 8 Sur 12 Sur 0 -- -- 81
2019-04-12 00:00:00 -- 9 Sur 14 Sur 0 -- -- 84
2019-04-11 23:00:00 -- 0 Calma 6 Sur 0 -- -- 66
2019-04-11 22:00:00 -- 3 Sudoeste 13 Oeste 0 -- -- 61
2019-04-11 21:00:00 -- 7 Oeste 14 Oeste 0 -- -- 69
2019-04-11 20:00:00 -- 4 Sudoeste 16 Sudoeste 0 -- -- 70
2019-04-11 19:00:00 -- 11 Noroeste 38 Oeste 0 -- -- 63
2019-04-11 18:00:00 -- 22 Oeste 44 Oeste 0 -- -- 55
2019-04-11 17:00:00 -- 21 Oeste 42 Oeste 0 -- -- 54
2019-04-11 16:00:00 -- 21 Oeste 39 Oeste 0 -- -- 49
2019-04-11 15:00:00 -- 18 Oeste 32 Sudoeste 0 -- -- 53
2019-04-11 14:00:00 -- 14 Oeste 26 Oeste 0 -- -- 50
2019-04-11 13:00:00 -- 9 Sur 23 Sudeste 0 -- -- 53
2019-04-11 12:00:00 -- 10 Sudeste 23 Este 0 -- -- 51
2019-04-11 11:00:00 -- 7 Este 14 Este 0 -- -- 51
2019-04-11 10:00:00 -- 3 Nordeste 9 Nordeste 0 -- -- 56
2019-04-11 09:00:00 -- 3 Norte 15 Noroeste 0 -- -- 63
2019-04-11 08:00:00 -- 12 Oeste 17 Oeste 0 -- -- 62
2019-04-11 07:00:00 -- 6 Sur 10 Sudoeste 0 -- -- 75
2019-04-11 06:00:00 -- 3 Sudoeste 12 Oeste 0 -- -- 73
2019-04-11 05:00:00 -- 4 Sur 12 Sur 0 -- -- 73
2019-04-11 04:00:00 -- 7 Sur 14 Sur 0 -- -- 63
2019-04-11 03:00:00 -- 9 Sur 43 Oeste 0 -- -- 57
2019-04-11 02:00:00 -- 32 Oeste 46 Oeste 0 -- -- 51
2019-04-11 01:00:00 -- 33 Oeste 50 Oeste 0 -- -- 52
2019-04-11 00:00:00 -- 37 Oeste 55 Oeste 0 -- -- 51
2019-04-10 23:00:00 -- 31 Oeste 46 Noroeste 0 -- -- 51
2019-04-10 22:00:00 -- 30 Oeste 51 Oeste 0 -- -- 49
2019-04-10 21:00:00 -- 25 Oeste 49 Oeste 0 -- -- 40
2019-04-10 20:00:00 -- 24 Oeste 48 Noroeste 0 -- -- 35
2019-04-10 19:00:00 -- 29 Noroeste 52 Noroeste 0 -- -- 35
2019-04-10 18:00:00 -- 35 Oeste 69 Noroeste 0 -- -- 34
2019-04-10 17:00:00 -- 42 Noroeste 66 Oeste 0 -- -- 35
2019-04-10 16:00:00 -- 40 Noroeste 68 Oeste 0 -- -- 37
2019-04-10 15:00:00 -- 33 Oeste 57 Oeste 0 -- -- 37
2019-04-10 14:00:00 -- 30 Oeste 47 Oeste 0 -- -- 39
2019-04-10 13:00:00 -- 16 Oeste 33 Noroeste 0 -- -- 39
2019-04-10 12:00:00 -- 15 Noroeste 26 Oeste 0 -- -- 44
2019-04-10 11:00:00 -- 17 Noroeste 48 Oeste 0 -- -- 47
2019-04-10 10:00:00 -- 27 Noroeste 48 Oeste 0 -- -- 47
2019-04-10 09:00:00 -- 24 Noroeste 47 Oeste 0 -- -- 52
2019-04-10 08:00:00 -- 27 Oeste 44 Noroeste 0 -- -- 50
2019-04-10 07:00:00 -- 30 Oeste 48 Oeste 0 -- -- 48
2019-04-10 06:00:00 -- 28 Noroeste 61 Noroeste 0 -- -- 49
2019-04-10 05:00:00 13.9 36 Oeste 58 Oeste 0 -- -- 57
2019-04-10 04:00:00 13.9 41 Oeste 65 Oeste 0 -- -- 59
2019-04-10 03:00:00 13.7 38 Oeste 59 Oeste 0 -- -- 62
2019-04-10 02:00:00 14 35 Oeste 54 Oeste 0 -- -- 60
2019-04-10 01:00:00 14 30 Oeste 54 Oeste 0 -- -- 59
2019-04-10 00:00:00 14.3 31 Noroeste 52 Noroeste 0 -- -- 60
2019-04-09 23:00:00 14.7 25 Oeste 44 Sudoeste 0 -- -- 59
2019-04-09 22:00:00 14.8 22 Noroeste 44 Noroeste 0 -- -- 57
2019-04-09 21:00:00 14 23 Oeste 40 Oeste 0 -- -- 77
2019-04-09 20:00:00 14.3 27 Oeste 50 Oeste 0 -- -- 77
2019-04-09 19:00:00 15 30 Oeste 61 Oeste 0 -- -- 74
2019-04-09 18:00:00 15.2 30 Oeste 56 Oeste 0 -- -- 74
2019-04-09 17:00:00 16.7 32 Oeste 53 Oeste 0 -- -- 63
2019-04-09 16:00:00 16.3 30 Oeste 59 Oeste 0 -- -- 70
2019-04-09 15:00:00 16.4 28 Oeste 53 Oeste 0 -- -- 61
2019-04-09 14:00:00 17.5 21 Noroeste 63 Noroeste 0 -- -- 48
2019-04-09 13:00:00 16.7 43 Noroeste 64 Noroeste 0 -- -- 45
2019-04-09 12:00:00 16.5 33 Noroeste 60 Noroeste 0 -- -- 46
2019-04-09 11:00:00 15.7 39 Oeste 64 Oeste 0 -- -- 46
2019-04-09 10:00:00 15.2 36 Oeste 53 Oeste 0 -- -- 44
2019-04-09 09:00:00 14.6 26 Oeste 54 Oeste 0 -- -- 42
2019-04-09 08:00:00 13.4 38 Noroeste 58 Noroeste 0 -- -- 52
2019-04-09 07:00:00 12.9 36 Oeste 61 Oeste 0 -- -- 57
2019-04-09 06:00:00 13.1 35 Oeste 55 Noroeste 0 -- -- 60
2019-04-09 05:00:00 13.7 30 Noroeste 52 Oeste 0 -- -- 58
2019-04-09 04:00:00 14.2 33 Noroeste 58 Noroeste 0 -- -- 58
2019-04-09 03:00:00 13.6 26 Oeste 48 Oeste 0 -- -- 66
2019-04-09 02:00:00 13.5 27 Oeste 46 Oeste 0 -- -- 80
2019-04-09 01:00:00 13.6 28 Oeste 48 Oeste 0 -- -- 88
2019-04-09 00:00:00 13.9 28 Oeste 45 Oeste 0 -- -- 84
2019-04-08 23:00:00 14.2 28 Oeste 44 Oeste 0 -- -- 83
2019-04-08 22:00:00 14.5 28 Oeste 48 Oeste 0 -- -- 81
2019-04-08 21:00:00 14.8 29 Oeste 48 Oeste 0 -- -- 80
2019-04-08 20:00:00 15.1 28 Oeste 45 Oeste 0 -- -- 78
2019-04-08 19:00:00 17.3 22 Oeste 44 Oeste 0 -- -- 72
2019-04-08 18:00:00 17.9 26 Oeste 48 Oeste 0 -- -- 68
2019-04-08 17:00:00 17.3 31 Oeste 46 Oeste 0 -- -- 73
2019-04-08 16:00:00 17 26 Oeste 49 Oeste 0 -- -- 76
2019-04-08 15:00:00 17.3 28 Oeste 48 Oeste 0 -- -- 74
2019-04-08 14:00:00 16.6 26 Oeste 45 Oeste 0 -- -- 76
2019-04-08 13:00:00 16 22 Oeste 41 Oeste 0 -- -- 79
2019-04-08 12:00:00 16.2 26 Oeste 42 Oeste 0 -- -- 80
2019-04-08 11:00:00 15.8 25 Oeste 44 Oeste 0 -- -- 80
2019-04-08 10:00:00 14.7 28 Oeste 47 Oeste 0 -- -- 80
2019-04-08 09:00:00 14 25 Oeste 41 Oeste 0 -- -- 82
2019-04-08 08:00:00 13.8 22 Oeste 36 Oeste 0 -- -- 76
2019-04-08 07:00:00 13.3 22 Oeste 39 Oeste 0 -- -- 83
2019-04-08 06:00:00 13 22 Oeste 42 Oeste 0 -- -- 87
2019-04-08 05:00:00 13.1 28 Oeste 45 Oeste 0 -- -- 87
2019-04-08 04:00:00 13 26 Oeste 38 Oeste 0 -- -- 86
2019-04-08 03:00:00 13.2 20 Oeste 37 Oeste 0 -- -- 84
2019-04-08 02:00:00 13.4 26 Oeste 36 Oeste 0 -- -- 83
2019-04-08 01:00:00 13.7 21 Oeste 34 Oeste 0 -- -- 81
2019-04-08 00:00:00 13.4 13 Oeste 25 Oeste 0 -- -- 87
2019-04-07 23:00:00 13 14 Oeste 24 Oeste 0 -- -- 85
2019-04-07 22:00:00 13.3 17 Oeste 36 Oeste 0 -- -- 81
2019-04-07 21:00:00 13.4 23 Oeste 39 Oeste 0 -- -- 80
2019-04-07 20:00:00 13.5 21 Oeste 41 Oeste 0 -- -- 78
2019-04-07 19:00:00 14.5 28 Oeste 47 Oeste 0 -- -- 73
2019-04-07 18:00:00 14.9 19 Oeste 40 Oeste 0 -- -- 70
2019-04-07 17:00:00 14.8 23 Oeste 42 Oeste 0 -- -- 68
2019-04-07 16:00:00 16.5 22 Oeste 57 Oeste 0 -- -- 53
2019-04-07 15:00:00 16.5 27 Oeste 60 Noroeste 0 -- -- 51
2019-04-07 14:00:00 15.8 28 Noroeste 84 Noroeste 0 -- -- 51
2019-04-07 13:00:00 15.1 39 Noroeste 74 Oeste 0 -- -- 53
2019-04-07 12:00:00 14 42 Noroeste 67 Noroeste 0 -- -- 59
2019-04-07 11:00:00 13.5 39 Noroeste 79 Noroeste 0 -- -- 59
2019-04-07 10:00:00 13 44 Noroeste 75 Noroeste 0 -- -- 58
2019-04-07 09:00:00 12 33 Noroeste 62 Noroeste 0 -- -- 60
2019-04-07 08:00:00 11.9 44 Noroeste 66 Noroeste 0 -- -- 56
2019-04-07 07:00:00 11.6 33 Noroeste 67 Noroeste 0 -- -- 56
2019-04-07 06:00:00 10.8 30 Noroeste 59 Noroeste 0 -- -- 62
2019-04-07 05:00:00 11.4 31 Noroeste 54 Noroeste 0 -- -- 60
2019-04-07 04:00:00 11.5 37 Noroeste 55 Oeste 0 -- -- 61
2019-04-07 03:00:00 10.9 23 Oeste 41 Noroeste 0 -- -- 68
2019-04-07 02:00:00 10.5 25 Noroeste 43 Noroeste 0 -- -- 69
2019-04-07 01:00:00 9.9 22 Oeste 48 Noroeste 0.2 -- -- 71
2019-04-07 00:00:00 10.2 29 Noroeste 55 Noroeste 0 -- -- 70
2019-04-06 23:00:00 10 28 Noroeste 44 Noroeste 0.6 -- -- 73
2019-04-06 22:00:00 9.4 25 Oeste 46 Oeste 2 -- -- 80
2019-04-06 21:00:00 10.3 19 Noroeste 33 Noroeste 0.8 -- -- 78
2019-04-06 20:00:00 10.1 17 Oeste 41 Oeste 0.6 -- -- 83
2019-04-06 19:00:00 11 25 Oeste 40 Oeste 0 -- -- 87
2019-04-06 18:00:00 10.9 18 Oeste 35 Oeste 0 -- -- 85
2019-04-06 17:00:00 10.1 21 Oeste 41 Oeste 2.6 -- -- 92
2019-04-06 16:00:00 11.2 20 Oeste 40 Oeste 4.6 -- -- 83
2019-04-06 15:00:00 12.9 23 Oeste 45 Oeste 0 -- -- 72
2019-04-06 14:00:00 14.3 22 Oeste 49 Oeste 0 -- -- 60
2019-04-06 13:00:00 14.3 23 Oeste 49 Oeste 0 -- -- 61
2019-04-06 12:00:00 14.1 23 Oeste 43 Noroeste 0 -- -- 59
2019-04-06 11:00:00 13.2 33 Noroeste 55 Oeste 0 -- -- 53
2019-04-06 10:00:00 11.9 38 Noroeste 62 Noroeste 0 -- -- 57
2019-04-06 09:00:00 10.9 36 Noroeste 59 Oeste 0 -- -- 60
2019-04-06 08:00:00 10.1 36 Noroeste 61 Noroeste 0 -- -- 61
2019-04-06 07:00:00 10 35 Oeste 59 Oeste 0 -- -- 61
2019-04-06 06:00:00 10 33 Noroeste 46 Oeste 0 -- -- 61
2019-04-06 05:00:00 10 28 Noroeste 48 Noroeste 0 -- -- 61
2019-04-06 04:00:00 10.3 31 Oeste 57 Oeste 0 -- -- 58
2019-04-06 03:00:00 10.4 34 Oeste 55 Oeste 0 -- -- 58
2019-04-06 02:00:00 10.5 25 Noroeste 42 Oeste 0 -- -- 60
2019-04-06 01:00:00 10.8 26 Oeste 45 Noroeste 0 -- -- 58
2019-04-06 00:00:00 10.9 21 Oeste 47 Oeste 0 -- -- 56
2019-04-05 23:00:00 10.9 24 Oeste 36 Oeste 0 -- -- 55
2019-04-05 22:00:00 10.7 23 Noroeste 35 Oeste 0 -- -- 53
2019-04-05 21:00:00 11.1 22 Noroeste 47 Oeste 0 -- -- 52
2019-04-05 20:00:00 11.3 28 Noroeste 56 Oeste 0 -- -- 56
2019-04-05 19:00:00 10.7 24 Oeste 44 Oeste 0.2 -- -- 91
2019-04-05 18:00:00 11.1 14 Sudoeste 31 Oeste 0 -- -- 96
2019-04-05 17:00:00 10.8 13 Oeste 31 Oeste 0 -- -- 96
2019-04-05 16:00:00 10.6 18 Oeste 57 Sudoeste 2.4 -- -- 98
2019-04-05 15:00:00 9.9 18 Oeste 45 Oeste 6.2 -- -- 95
2019-04-05 14:00:00 10.6 18 Oeste 45 Oeste 4 -- -- 92
2019-04-05 13:00:00 11.5 20 Oeste 42 Oeste 0.4 -- -- 89
2019-04-05 12:00:00 11 22 Oeste 50 Oeste 0.2 -- -- 90
2019-04-05 11:00:00 11.1 10 Noroeste 29 Noroeste 2.2 -- -- 91
2019-04-05 10:00:00 10.6 8 Oeste 23 Noroeste 1.4 -- -- 87
2019-04-05 09:00:00 10.6 13 Oeste 27 Oeste 0.8 -- -- 81
2019-04-05 08:00:00 11.2 12 Oeste 24 Oeste 0 -- -- 64
2019-04-05 07:00:00 11 14 Oeste 23 Noroeste 0 -- -- 70
2019-04-05 06:00:00 11.1 12 Oeste 24 Noroeste 0 -- -- 67
2019-04-05 05:00:00 11.3 15 Oeste 28 Oeste 0 -- -- 76
2019-04-05 04:00:00 10.6 7 Oeste 14 Oeste 0 -- -- 79
2019-04-05 03:00:00 11.6 13 Oeste 31 Noroeste 0 -- -- 75
2019-04-05 02:00:00 11.8 15 Oeste 27 Noroeste 0 -- -- 72
2019-04-05 01:00:00 11.5 5 Norte 26 Noroeste 0 -- -- 76
2019-04-05 00:00:00 12 8 Oeste 27 Noroeste 0 -- -- 76
2019-04-04 23:00:00 12.7 14 Noroeste 28 Noroeste 0 -- -- 79
2019-04-04 22:00:00 12.6 15 Oeste 25 Oeste 0 -- -- 80
2019-04-04 21:00:00 13.2 13 Oeste 25 Oeste 0 -- -- 74
2019-04-04 20:00:00 14.3 7 Sudoeste 19 Oeste 0 -- -- 74
2019-04-04 19:00:00 14.5 4 Nordeste 9 Este 0 -- -- 73
2019-04-04 18:00:00 14.7 7 Este 18 Sudeste 0 -- -- 78
2019-04-04 17:00:00 14.1 15 Sudeste 24 Sudeste 0 -- -- 82
2019-04-04 16:00:00 14.1 14 Este 22 Sudeste 0 -- -- 81
2019-04-04 15:00:00 14.3 12 Sudeste 18 Sudeste 0 -- -- 80
2019-04-04 14:00:00 15 12 Sudeste 21 Este 0 -- -- 78
2019-04-04 13:00:00 15.5 15 Este 21 Este 0 -- -- 75
2019-04-04 12:00:00 14.6 12 Este 21 Este 0 -- -- 80
2019-04-04 11:00:00 14.7 10 Sudeste 24 Sudeste 0 -- -- 79
2019-04-04 10:00:00 16.3 14 Este 22 Sudeste 0 -- -- 67
2019-04-04 09:00:00 15.3 9 Sur 17 Sudeste 0 -- -- 63
2019-04-04 08:00:00 13.8 5 Oeste 19 Oeste 0 -- -- 47
2019-04-04 07:00:00 13 12 Oeste 19 Oeste 0 -- -- 54
2019-04-04 06:00:00 13.6 8 Oeste 14 Oeste 0 -- -- 50
2019-04-04 05:00:00 14.6 5 Sudeste 12 Noroeste 0 -- -- 55
2019-04-04 04:00:00 17 11 Noroeste 28 Oeste 0 -- -- 36
2019-04-04 03:00:00 18 16 Oeste 40 Oeste 0 -- -- 34
2019-04-04 02:00:00 17.7 28 Noroeste 45 Noroeste 0 -- -- 36
2019-04-04 01:00:00 17.8 24 Noroeste 53 Noroeste 0 -- -- 40
2019-04-04 00:00:00 18.1 27 Noroeste 43 Noroeste 0 -- -- 40
2019-04-03 23:00:00 18.5 30 Noroeste 50 Noroeste 0 -- -- 41
2019-04-03 22:00:00 18.8 26 Noroeste 45 Oeste 0 -- -- 42
2019-04-03 21:00:00 17.8 22 Oeste 44 Oeste 0 -- -- 55
2019-04-03 20:00:00 16.7 30 Oeste 51 Noroeste 0 -- -- 56
2019-04-03 19:00:00 18.7 32 Oeste 48 Oeste 0 -- -- 49
2019-04-03 18:00:00 20.5 26 Oeste 41 Oeste 0 -- -- 48
2019-04-03 17:00:00 20.9 24 Oeste 43 Oeste 0 -- -- 43
2019-04-03 16:00:00 20.2 28 Oeste 45 Oeste 0 -- -- 48
2019-04-03 15:00:00 20.2 19 Oeste 35 Oeste 0 -- -- 47
2019-04-03 14:00:00 18.8 12 Este 23 Sudeste 0 -- -- 73
2019-04-03 13:00:00 18.1 12 Este 20 Este 0 -- -- 77
2019-04-03 12:00:00 18.2 10 Sudeste 15 Sudeste 0 -- -- 63
2019-04-03 11:00:00 17 11 Sudeste 17 Sudeste 0 -- -- 74
2019-04-03 10:00:00 17.5 3 Sudeste 7 Noroeste 0 -- -- 61
2019-04-03 09:00:00 14.8 4 Sudeste 5 Sudeste 0 -- -- 75
2019-04-03 08:00:00 11.9 0 Calma 9 Sudeste 0 -- -- 75
2019-04-03 07:00:00 12.6 6 Oeste 9 Sudoeste 0 -- -- 77
2019-04-03 06:00:00 12.4 2 Sudeste 5 Sudeste 0 -- -- 76
2019-04-03 05:00:00 12.3 3 Sudoeste 5 Sudoeste 0 -- -- 80
2019-04-03 04:00:00 12.6 2 Sudoeste 8 Sudoeste 0 -- -- 81
2019-04-03 03:00:00 12.9 3 Sur 7 Sudeste 0 -- -- 81
2019-04-03 02:00:00 14.2 4 Sudeste 9 Sudoeste 0 -- -- 72
2019-04-03 01:00:00 14.9 2 Oeste 14 Sudoeste 0 -- -- 65
2019-04-03 00:00:00 15.1 5 Oeste 12 Sur 0 -- -- 62
2019-04-02 23:00:00 15.3 0 Calma 9 Sur 0 -- -- 61
2019-04-02 22:00:00 15.5 2 Este 8 Sur 0 -- -- 60
2019-04-02 21:00:00 15.9 4 Nordeste 28 Oeste 0 -- -- 56
2019-04-02 20:00:00 16.1 15 Oeste 41 Oeste 0 -- -- 52
2019-04-02 19:00:00 17.6 18 Oeste 35 Oeste 0 -- -- 50
2019-04-02 18:00:00 18.7 19 Oeste 32 Oeste 0 -- -- 52
2019-04-02 17:00:00 19.7 13 Oeste 25 Oeste 0 -- -- 48
2019-04-02 16:00:00 19.7 13 Oeste 25 Sur 0 -- -- 44
2019-04-02 15:00:00 18.8 8 Oeste 19 Este 0 -- -- 66
2019-04-02 14:00:00 18 11 Este 21 Sudeste 0 -- -- 74
2019-04-02 13:00:00 17.4 11 Sudeste 17 Sudeste 0 -- -- 76
2019-04-02 12:00:00 17.1 10 Sudeste 15 Sudeste 0 -- -- 76
2019-04-02 11:00:00 17 8 Sudeste 13 Sudeste 0 -- -- 71
2019-04-02 10:00:00 16.3 4 Este 7 Sudeste 0 -- -- 72
2019-04-02 09:00:00 13.8 5 Sudeste 8 Sudeste 0 -- -- 84
2019-04-02 08:00:00 11.2 3 Sudoeste 8 Sudeste 0 -- -- 86
2019-04-02 07:00:00 11.7 4 Sur 7 Sudeste 0 -- -- 88
2019-04-02 06:00:00 11.8 5 Sur 12 Sudeste 0 -- -- 90
2019-04-02 05:00:00 12 4 Sur 8 Sur 0 -- -- 87
2019-04-02 04:00:00 12.3 6 Sudeste 12 Sudeste 0 -- -- 82
2019-04-02 03:00:00 12.4 5 Sur 10 Sudoeste 0 -- -- 82
2019-04-02 02:00:00 12.9 2 Sudoeste 11 Oeste 0 -- -- 81
2019-04-02 01:00:00 13.6 3 Sudeste 18 Oeste 0 -- -- 78
2019-04-02 00:00:00 14.8 10 Oeste 21 Noroeste 0 -- -- 73
2019-04-01 23:00:00 14.7 11 Oeste 23 Oeste 0 -- -- 74
2019-04-01 22:00:00 14.7 10 Oeste 19 Oeste 0 -- -- 73
2019-04-01 21:00:00 14.3 8 Noroeste 25 Oeste 0 -- -- 77
2019-04-01 20:00:00 15.3 14 Oeste 26 Oeste 0 -- -- 72
2019-04-01 19:00:00 17 10 Noroeste 33 Noroeste 0 -- -- 65
2019-04-01 18:00:00 17.3 20 Oeste 35 Noroeste 0 -- -- 72
2019-04-01 17:00:00 17.8 17 Oeste 36 Noroeste 0 -- -- 65
2019-04-01 16:00:00 18.1 21 Oeste 40 Oeste 0 -- -- 62
2019-04-01 15:00:00 17.7 20 Oeste 39 Oeste 0 -- -- 64
2019-04-01 14:00:00 16.5 10 Oeste 33 Oeste 0 -- -- 73
2019-04-01 13:00:00 16.7 17 Oeste 36 Oeste 0 -- -- 72
2019-04-01 12:00:00 17.2 16 Oeste 30 Oeste 0 -- -- 68
2019-04-01 11:00:00 16.1 9 Sudeste 17 Sudeste 0 -- -- 83
2019-04-01 10:00:00 15.4 6 Sudeste 10 Este 0 -- -- 85
2019-04-01 09:00:00 13.5 0 Calma 6 Sudoeste 0 -- -- 91
2019-04-01 08:00:00 11.7 3 Sudoeste 8 Sur 0 -- -- 93
2019-04-01 07:00:00 12.7 2 Norte 7 Oeste 0 -- -- 93
2019-04-01 06:00:00 13 2 Nordeste 15 Oeste 0 -- -- 94
2019-04-01 05:00:00 12.9 5 Sudoeste 18 Sudoeste 0.2 -- -- 95
2019-04-01 04:00:00 13.2 5 Oeste 18 Sudoeste 0 -- -- 95
2019-04-01 03:00:00 13.1 10 Sudoeste 18 Sudoeste 0.4 -- -- 95
2019-04-01 02:00:00 13.4 8 Oeste 16 Noroeste 0 -- -- 93
2019-04-01 01:00:00 13.4 6 Oeste 13 Oeste 0 -- -- 92
2019-04-01 00:00:00 13.4 2 Sudeste 14 Oeste 0 -- -- 91
2019-03-31 23:00:00 13.2 4 Sur 15 Oeste 0 -- -- 92
2019-03-31 22:00:00 13.1 5 Sudoeste 19 Sudoeste 0 -- -- 92
2019-03-31 21:00:00 13 8 Sudoeste 22 Sudoeste 0 -- -- 93
2019-03-31 20:00:00 13.3 16 Oeste 24 Oeste 0 -- -- 92
2019-03-31 19:00:00 15 3 Nordeste 8 Este 0 -- -- 91
2019-03-31 18:00:00 15 5 Este 12 Sudoeste 0 -- -- 91
2019-03-31 17:00:00 14.5 6 Sudoeste 19 Sudoeste 0.2 -- -- 93
2019-03-31 16:00:00 13.6 6 Noroeste 17 Oeste 0.6 -- -- 97
2019-03-31 15:00:00 13.5 3 Este 5 Nordeste 4 -- -- 97
2019-03-31 14:00:00 13.1 0 Calma 4 Nordeste 3.8 -- -- 97
2019-03-31 13:00:00 13 0 Calma 4 Nordeste 6 -- -- 96
2019-03-31 12:00:00 13.2 0 Calma 6 Sudeste 0.8 -- -- 94
2019-03-31 11:00:00 12.9 4 Sudeste 6 Sur 0 -- -- 93
2019-03-31 10:00:00 12.5 0 Calma 8 Oeste 0 -- -- 94
2019-03-31 09:00:00 12 0 Calma 5 Sudoeste 0.2 -- -- 94
2019-03-31 08:00:00 12 3 Sur 10 Oeste 0 -- -- 94
2019-03-31 07:00:00 12.2 7 Oeste 10 Oeste 0.2 -- -- 96
2019-03-31 06:00:00 12.3 3 Norte 9 Sudeste 0.4 -- -- 96
2019-03-31 05:00:00 12.4 2 Sur 7 Sur 0.2 -- -- 93
2019-03-31 03:00:00 11.8 3 Sudoeste 14 Este 0 -- -- 97
2019-03-31 01:00:00 11.9 8 Este 23 Este 1.4 -- -- 96
2019-03-31 00:00:00 12.4 14 Este 24 Este 0.2 -- -- 93
2019-03-30 23:00:00 12.9 9 Sudeste 18 Sudeste 0 -- -- 89
2019-03-30 22:00:00 13.5 5 Sudeste 17 Sudeste 0 -- -- 85
2019-03-30 21:00:00 13.8 14 Sudeste 21 Sudeste 0 -- -- 81
2019-03-30 20:00:00 14 4 Sur 18 Oeste 0 -- -- 80
2019-03-30 19:00:00 14.7 8 Sudoeste 17 Sur 0 -- -- 75
2019-03-30 18:00:00 15 5 Sudeste 22 Este 0 -- -- 74
2019-03-30 17:00:00 14.7 17 Este 34 Nordeste 0 -- -- 73
2019-03-30 16:00:00 15.3 20 Este 36 Este 0 -- -- 73
2019-03-30 15:00:00 16.1 23 Este 39 Este 0 -- -- 69
2019-03-30 14:00:00 16.1 26 Este 39 Este 0 -- -- 68
2019-03-30 13:00:00 16.4 23 Este 40 Sudeste 0 -- -- 65
2019-03-30 12:00:00 15.9 26 Este 40 Este 0 -- -- 65
2019-03-30 11:00:00 14.6 23 Este 31 Este 0 -- -- 67
2019-03-30 10:00:00 14.4 15 Este 24 Este 0 -- -- 68
2019-03-30 09:00:00 13 8 Sudeste 12 Sudeste 0 -- -- 73
2019-03-30 08:00:00 11.7 4 Oeste 6 Oeste 0 -- -- 76
2019-03-30 07:00:00 11.4 0 Calma 6 Sudeste 0 -- -- 75
2019-03-30 06:00:00 11.5 4 Sudoeste 10 Sudeste 0 -- -- 76
2019-03-30 05:00:00 11.4 4 Sudoeste 8 Sur 0 -- -- 75
2019-03-30 04:00:00 11.6 3 Nordeste 9 Sudoeste 0 -- -- 82
2019-03-30 03:00:00 11 0 Calma 10 Sur 0 -- -- 85
2019-03-30 02:00:00 10.5 4 Sudoeste 9 Oeste 0 -- -- 86
2019-03-30 01:00:00 10.9 3 Sur 9 Sur 0 -- -- 86
2019-03-30 00:00:00 11.2 6 Sur 10 Sudeste 0 -- -- 85
2019-03-29 23:00:00 12.4 10 Sudeste 18 Este 0 -- -- 81
2019-03-29 22:00:00 12.9 13 Sudeste 24 Este 0 -- -- 81
2019-03-29 21:00:00 12.9 16 Este 27 Este 0 -- -- 79
2019-03-29 20:00:00 13.2 15 Este 24 Este 0 -- -- 79
2019-03-29 19:00:00 13.5 13 Este 21 Este 0 -- -- 77
2019-03-29 18:00:00 14.5 16 Sudeste 25 Este 0 -- -- 72
2019-03-29 17:00:00 15.2 17 Este 32 Este 0 -- -- 71
2019-03-29 16:00:00 16 21 Este 38 Sudeste 0 -- -- 67
2019-03-29 15:00:00 16.1 26 Este 43 Este 0 -- -- 65
2019-03-29 14:00:00 16.6 24 Este 37 Este 0 -- -- 64
2019-03-29 13:00:00 16.8 23 Este 35 Sudeste 0 -- -- 62
2019-03-29 12:00:00 17.1 17 Este 29 Este 0 -- -- 61
2019-03-29 11:00:00 16.9 14 Este 21 Sudeste 0 -- -- 53
2019-03-29 10:00:00 16.1 12 Este 19 Este 0 -- -- 46
2019-03-29 09:00:00 15.7 5 Este 13 Sudeste 0 -- -- 45
2019-03-29 08:00:00 13.1 5 Este 22 Sudeste 0 -- -- 53
2019-03-29 07:00:00 11.8 11 Sudeste 17 Sudeste 0 -- -- 48
2019-03-29 06:00:00 12.2 6 Sudeste 15 Este 0 -- -- 32
2019-03-29 05:00:00 13 10 Este 18 Sudeste 0 -- -- 30
2019-03-29 04:00:00 12.3 6 Este 15 Nordeste 0 -- -- 30
2019-03-29 03:00:00 11.3 3 Sudeste 18 Sudeste 0 -- -- 42
2019-03-29 02:00:00 11.8 5 Este 13 Nordeste 0 -- -- 32
2019-03-29 01:00:00 12.4 6 Este 17 Este 0 -- -- 31
2019-03-29 00:00:00 11.6 4 Nordeste 13 Nordeste 0 -- -- 37
2019-03-28 23:00:00 11.1 6 Sudeste 11 Este 0 -- -- 66
2019-03-28 22:00:00 11.8 6 Sudeste 35 Este 0 -- -- 73
2019-03-28 21:00:00 12.3 21 Este 42 Este 0 -- -- 71
2019-03-28 20:00:00 12.6 26 Este 41 Este 0 -- -- 73
2019-03-28 19:00:00 12.7 27 Este 40 Este 0 -- -- 76
2019-03-28 18:00:00 13.8 23 Este 38 Este 0 -- -- 69
2019-03-28 17:00:00 14.5 22 Este 41 Este 0 -- -- 65
2019-03-28 16:00:00 15 24 Este 37 Este 0 -- -- 65
2019-03-28 15:00:00 15.4 24 Este 37 Este 0 -- -- 58
2019-03-28 14:00:00 16.2 23 Este 35 Este 0 -- -- 53
2019-03-28 13:00:00 16.6 23 Este 40 Sudeste 0 -- -- 47
2019-03-28 12:00:00 16.4 25 Sudeste 36 Sudeste 0 -- -- 44
2019-03-28 11:00:00 16.7 23 Este 33 Este 0 -- -- 38
2019-03-28 10:00:00 16 19 Este 28 Este 0 -- -- 33
2019-03-28 09:00:00 15.1 11 Este 22 Este 0 -- -- 39
2019-03-28 08:00:00 11.8 4 Nordeste 12 Nordeste 0 -- -- 42
2019-03-28 07:00:00 10.1 8 Este 16 Este 0 -- -- 51
2019-03-28 06:00:00 9.8 8 Sudeste 15 Sudeste 0 -- -- 54
2019-03-28 05:00:00 9.6 0 Calma 16 Sudeste 0 -- -- 61
2019-03-28 04:00:00 9.4 3 Sudeste 8 Sudeste 0 -- -- 70
2019-03-28 03:00:00 9.8 0 Calma 9 Sur 0 -- -- 69
2019-03-28 02:00:00 10.3 4 Sudeste 6 Sudeste 0 -- -- 72
2019-03-28 01:00:00 10.5 4 Sur 8 Sur 0 -- -- 74
2019-03-28 00:00:00 11.1 6 Sudeste 14 Sudeste 0 -- -- 72
2019-03-27 23:00:00 11.5 10 Este 38 Este 0 -- -- 73
2019-03-27 22:00:00 12 18 Este 42 Este 0 -- -- 74
2019-03-27 21:00:00 12.5 24 Este 39 Este 0 -- -- 72
2019-03-27 20:00:00 13.2 28 Este 43 Sudeste 0 -- -- 65
2019-03-27 19:00:00 13.2 19 Este 33 Sudeste 0 -- -- 71
2019-03-27 18:00:00 14.1 21 Este 41 Sudeste 0 -- -- 71
2019-03-27 17:00:00 15.2 25 Este 40 Este 0 -- -- 60
2019-03-27 16:00:00 15.6 30 Este 45 Este 0 -- -- 60
2019-03-27 15:00:00 16.3 28 Este 44 Este 0 -- -- 54
2019-03-27 14:00:00 16.6 24 Este 43 Sudeste 0 -- -- 54
2019-03-27 13:00:00 17 26 Este 43 Este 0 -- -- 52
2019-03-27 12:00:00 17 32 Este 53 Este 0 -- -- 41
2019-03-27 11:00:00 17.2 30 Este 45 Este 0 -- -- 35
2019-03-27 10:00:00 16.9 12 Este 33 Este 0 -- -- 30
2019-03-27 09:00:00 15.4 11 Este 26 Sudeste 0 -- -- 38
2019-03-27 08:00:00 12.9 27 Este 44 Este 0 -- -- 51
2019-03-27 07:00:00 12.6 23 Este 45 Sudeste 0 -- -- 47
2019-03-27 06:00:00 12.5 8 Oeste 22 Sudeste 0 -- -- 35
2019-03-27 05:00:00 12.7 9 Este 29 Sudeste 0 -- -- 45
2019-03-27 04:00:00 12.1 5 Sudeste 17 Sudeste 0 -- -- 46
2019-03-27 03:00:00 11.8 5 Sur 30 Este 0 -- -- 52
2019-03-27 02:00:00 12.6 10 Sudeste 44 Este 0 -- -- 53
2019-03-27 01:00:00 12.6 27 Este 46 Este 0 -- -- 61
2019-03-27 00:00:00 12.9 22 Este 38 Este 0 -- -- 66
2019-03-26 23:00:00 13.7 10 Sudeste 24 Sudeste 0 -- -- 65
2019-03-26 22:00:00 13.8 6 Sur 31 Sudeste 0 -- -- 72
2019-03-26 21:00:00 14.2 16 Sudeste 33 Sudeste 0 -- -- 76
2019-03-26 20:00:00 14.5 25 Este 42 Este 0 -- -- 75
2019-03-26 19:00:00 14.8 23 Este 41 Este 0 -- -- 77
2019-03-26 18:00:00 16 23 Sudeste 40 Este 0 -- -- 72
2019-03-26 17:00:00 16.7 24 Este 50 Este 0 -- -- 67
2019-03-26 16:00:00 17.3 32 Este 48 Este 0 -- -- 60
2019-03-26 15:00:00 18.5 28 Este 46 Este 0 -- -- 57
2019-03-26 14:00:00 17.8 31 Este 54 Este 0 -- -- 58
2019-03-26 13:00:00 18.8 29 Este 53 Este 0 -- -- 52
2019-03-26 12:00:00 19.6 21 Este 36 Este 0 -- -- 48
2019-03-26 11:00:00 19.1 19 Este 36 Sudeste 0 -- -- 48
2019-03-26 10:00:00 20 8 Este 19 Sudeste 0 -- -- 39
2019-03-26 09:00:00 18.9 4 Este 8 Noroeste 0 -- -- 41
2019-03-26 08:00:00 15.3 0 Calma 15 Sudeste 0 -- -- 50
2019-03-26 07:00:00 15.1 5 Sudeste 11 Este 0 -- -- 45
2019-03-26 06:00:00 14 4 Oeste 11 Sur 0 -- -- 58
2019-03-26 05:00:00 14.5 7 Sur 11 Oeste 0 -- -- 57
2019-03-26 04:00:00 13.8 6 Oeste 11 Oeste 0 -- -- 66
2019-03-26 03:00:00 14.4 5 Sudeste 9 Este 0 -- -- 63
2019-03-26 02:00:00 14.1 3 Oeste 8 Oeste 0 -- -- 65
2019-03-26 01:00:00 14.1 4 Sur 9 Sur 0 -- -- 65
2019-03-26 00:00:00 14.9 6 Sur 16 Sudoeste 0 -- -- 63
2019-03-25 23:00:00 15 6 Sudoeste 11 Sur 0 -- -- 63
2019-03-25 22:00:00 14.9 8 Oeste 10 Oeste 0 -- -- 70
2019-03-25 21:00:00 14.2 3 Sur 8 Sudeste 0 -- -- 74
2019-03-25 20:00:00 14.4 5 Sur 14 Sudeste 0 -- -- 79
2019-03-25 19:00:00 15.4 7 Sudeste 16 Este 0 -- -- 72
2019-03-25 18:00:00 17.1 8 Este 17 Este 0 -- -- 64
2019-03-25 17:00:00 17.9 10 Este 24 Sudeste 0 -- -- 61
2019-03-25 16:00:00 18.9 7 Este 17 Este 0 -- -- 57
2019-03-25 15:00:00 19 8 Este 20 Este 0 -- -- 56
2019-03-25 14:00:00 19.3 15 Este 23 Este 0 -- -- 53
2019-03-25 13:00:00 19.1 12 Este 22 Este 0 -- -- 52
2019-03-25 12:00:00 19.5 10 Este 18 Este 0 -- -- 45
2019-03-25 11:00:00 19.8 5 Este 12 Sudeste 0 -- -- 53
2019-03-25 10:00:00 18.4 4 Este 8 Este 0 -- -- 56
2019-03-25 09:00:00 16.9 6 Sudeste 11 Sudeste 0 -- -- 60
2019-03-25 08:00:00 14.1 5 Sur 10 Sur 0 -- -- 64
2019-03-25 07:00:00 12.9 4 Sur 6 Sur 0 -- -- 61
2019-03-25 06:00:00 12.5 4 Sur 7 Sudoeste 0 -- -- 65
2019-03-25 05:00:00 12.7 5 Sur 11 Sudeste 0 -- -- 70
2019-03-25 04:00:00 13.6 6 Sudeste 10 Sur 0 -- -- 69
2019-03-25 03:00:00 13 4 Sur 10 Sudeste 0 -- -- 78
2019-03-25 02:00:00 14.1 8 Sur 15 Sudeste 0 -- -- 70
2019-03-25 01:00:00 15 2 Norte 11 Norte 0 -- -- 55
2019-03-25 00:00:00 14.9 0 Calma 7 Oeste 0 -- -- 59